Time;durP1;ratioP1;P1;durP2;ratioP2;P2;SDS_P1;SDS_P2;PMS_P1;PMS_P2;Temp;Humidity;BMP_temperature;BMP_pressure;BME280_temperature;BME280_humidity;BME280_pressure;Samples;Min_cycle;Max_cycle;Signal;HPM_P1;HPM_P2
2023/07/03 00:01:29;;;;;;;4.65;4.18;;;;;;;;;;6221451;23;20174;-82
2023/07/03 00:03:57;;;;;;;5.45;4.88;;;;;;;;;;6219801;23;20540;-83
2023/07/03 00:06:24;;;;;;;5.80;3.85;;;;;;;;;;6220924;23;20182;-82
2023/07/03 00:08:52;;;;;;;8.70;5.63;;;;;;;;;;6221360;23;20260;-83
2023/07/03 00:11:20;;;;;;;4.97;4.20;;;;;;;;;;6220634;23;20204;-83
2023/07/03 00:13:47;;;;;;;5.13;4.43;;;;;;;;;;6220980;23;20225;-82
2023/07/03 00:16:16;;;;;;;5.97;5.35;;;;;;;;;;6221034;23;20174;-80
2023/07/03 00:18:44;;;;;;;5.07;4.32;;;;;;;;;;6220771;23;20205;-83
2023/07/03 00:21:11;;;;;;;5.03;4.55;;;;;;;;;;6221271;23;20677;-81
2023/07/03 00:23:38;;;;;;;5.25;4.30;;;;;;;;;;6219956;23;20249;-81
2023/07/03 00:26:06;;;;;;;6.25;4.70;;;;;;;;;;6220213;23;20206;-83
2023/07/03 00:28:33;;;;;;;5.47;4.68;;;;;;;;;;6220078;23;20663;-82
2023/07/03 00:31:01;;;;;;;5.15;4.15;;;;;;;;;;6219714;23;20229;-82
2023/07/03 00:33:30;;;;;;;6.68;5.13;;;;;;;;;;6221353;23;20232;-83
2023/07/03 00:35:57;;;;;;;7.30;5.03;;;;;;;;;;6220773;23;20558;-81
2023/07/03 00:38:24;;;;;;;5.40;4.25;;;;;;;;;;6219606;23;20184;-83
2023/07/03 00:40:52;;;;;;;8.48;5.22;;;;;;;;;;6219709;23;20245;-83
2023/07/03 00:43:19;;;;;;;6.32;5.45;;;;;;;;;;6220890;23;20217;-83
2023/07/03 00:45:47;;;;;;;5.95;5.25;;;;;;;;;;6219937;23;20170;-82
2023/07/03 00:48:14;;;;;;;8.00;5.45;;;;;;;;;;6219799;23;20209;-83
2023/07/03 00:50:43;;;;;;;6.47;5.18;;;;;;;;;;6221194;23;20273;-83
2023/07/03 00:53:11;;;;;;;8.73;4.80;;;;;;;;;;6225634;23;20186;-82
2023/07/03 00:55:39;;;;;;;10.30;6.28;;;;;;;;;;6224752;23;20205;-83
2023/07/03 00:58:06;;;;;;;5.82;4.43;;;;;;;;;;6225014;23;20202;-82
2023/07/03 01:00:41;;;;;;;7.85;5.68;;;;;;;;;;6223891;23;20285;-81
2023/07/03 01:03:14;;;;;;;7.10;4.88;;;;;;;;;;6225669;23;20240;-79
2023/07/03 01:05:47;;;;;;;6.80;5.53;;;;;;;;;;6224950;23;20261;-82
2023/07/03 01:08:15;;;;;;;6.57;5.03;;;;;;;;;;6224870;23;20193;-80
2023/07/03 01:10:43;;;;;;;12.63;6.88;;;;;;;;;;6224835;23;20277;-83
2023/07/03 01:13:14;;;;;;;9.00;5.35;;;;;;;;;;6224903;23;20201;-83
2023/07/03 01:15:44;;;;;;;6.80;4.45;;;;;;;;;;6225346;23;20247;-82
2023/07/03 01:18:12;;;;;;;9.20;5.82;;;;;;;;;;6225008;23;20177;-83
2023/07/03 01:20:45;;;;;;;6.43;5.07;;;;;;;;;;6225048;23;20208;-83
2023/07/03 01:23:20;;;;;;;7.38;4.60;;;;;;;;;;6225578;23;20166;-83
2023/07/03 01:25:50;;;;;;;6.35;4.70;;;;;;;;;;6224968;23;20233;-81
2023/07/03 01:28:20;;;;;;;8.30;5.57;;;;;;;;;;6224720;23;20214;-81
2023/07/03 01:30:49;;;;;;;8.43;5.07;;;;;;;;;;6224837;23;20229;-81
2023/07/03 01:33:32;;;;;;;8.68;5.07;;;;;;;;;;6225073;23;20257;-82
2023/07/03 01:36:00;;;;;;;11.07;5.53;;;;;;;;;;6223908;23;20628;-83
2023/07/03 01:38:29;;;;;;;7.10;4.47;;;;;;;;;;6224698;23;20261;-82
2023/07/03 01:40:59;;;;;;;5.72;4.03;;;;;;;;;;6224870;23;20616;-82
2023/07/03 01:43:26;;;;;;;9.57;4.90;;;;;;;;;;6224693;23;20178;-81
2023/07/03 01:45:54;;;;;;;7.35;5.13;;;;;;;;;;6224990;23;20250;-81
2023/07/03 01:48:21;;;;;;;7.15;4.40;;;;;;;;;;6225165;23;20562;-83
2023/07/03 01:50:49;;;;;;;5.07;3.50;;;;;;;;;;6224732;23;20198;-82
2023/07/03 01:53:24;;;;;;;4.30;3.47;;;;;;;;;;6223684;23;20510;-83
2023/07/03 01:55:55;;;;;;;4.88;2.92;;;;;;;;;;6224007;23;20875;-83
2023/07/03 01:58:31;;;;;;;8.45;4.10;;;;;;;;;;6224188;23;20162;-83
2023/07/03 02:01:03;;;;;;;4.72;3.03;;;;;;;;;;6223332;23;20189;-82
2023/07/03 02:03:33;;;;;;;4.40;2.80;;;;;;;;;;6223840;23;20162;-81
2023/07/03 02:06:05;;;;;;;3.08;2.20;;;;;;;;;;6224141;23;20181;-82
2023/07/03 02:08:32;;;;;;;4.55;2.78;;;;;;;;;;6224394;23;20189;-82
2023/07/03 02:11:00;;;;;;;3.28;2.55;;;;;;;;;;6223707;23;20228;-83
2023/07/03 02:13:29;;;;;;;6.00;2.85;;;;;;;;;;6225200;23;20184;-82
2023/07/03 02:15:56;;;;;;;3.42;2.88;;;;;;;;;;6223991;23;20197;-83
2023/07/03 02:18:24;;;;;;;5.10;2.60;;;;;;;;;;6223474;23;20177;-82
2023/07/03 02:20:52;;;;;;;3.33;2.63;;;;;;;;;;6224385;23;20197;-82
2023/07/03 02:23:19;;;;;;;2.85;2.40;;;;;;;;;;6222027;23;20257;-81
2023/07/03 02:25:46;;;;;;;3.60;2.00;;;;;;;;;;6222742;23;20193;-83
2023/07/03 02:28:14;;;;;;;5.15;3.28;;;;;;;;;;6223925;23;20178;-83
2023/07/03 02:30:43;;;;;;;5.10;2.60;;;;;;;;;;6223903;23;20198;-83
2023/07/03 02:33:11;;;;;;;3.75;2.10;;;;;;;;;;6223484;23;20178;-83
2023/07/03 02:35:41;;;;;;;3.33;2.00;;;;;;;;;;6223940;23;20256;-82
2023/07/03 02:38:08;;;;;;;4.60;2.38;;;;;;;;;;6224501;23;20178;-81
2023/07/03 02:40:36;;;;;;;3.92;2.25;;;;;;;;;;6223887;23;20204;-83
2023/07/03 02:43:04;;;;;;;3.08;2.20;;;;;;;;;;6223412;23;20512;-83
2023/07/03 02:45:37;;;;;;;3.28;2.47;;;;;;;;;;6224084;23;20205;-82
2023/07/03 02:48:06;;;;;;;2.45;2.15;;;;;;;;;;6224100;23;20486;-82
2023/07/03 02:50:34;;;;;;;4.00;2.42;;;;;;;;;;6224009;23;20198;-82
2023/07/03 02:53:02;;;;;;;2.25;1.92;;;;;;;;;;6223522;23;20213;-81
2023/07/03 02:55:29;;;;;;;4.22;2.33;;;;;;;;;;6224828;23;20200;-83
2023/07/03 02:57:57;;;;;;;5.47;2.28;;;;;;;;;;6223610;23;20177;-84
2023/07/03 03:00:25;;;;;;;8.32;2.80;;;;;;;;;;6223716;23;20204;-82
2023/07/03 03:02:53;;;;;;;5.88;2.83;;;;;;;;;;6224459;23;20177;-82
2023/07/03 03:05:22;;;;;;;3.10;2.30;;;;;;;;;;6223057;23;20182;-83
2023/07/03 03:07:49;;;;;;;6.05;2.92;;;;;;;;;;6224614;23;20500;-80
2023/07/03 03:10:17;;;;;;;2.17;1.88;;;;;;;;;;6223219;23;20204;-82
2023/07/03 03:12:44;;;;;;;4.55;3.28;;;;;;;;;;6223074;23;20202;-82
2023/07/03 03:15:12;;;;;;;6.22;2.95;;;;;;;;;;6223230;23;20178;-83
2023/07/03 03:17:39;;;;;;;3.63;2.00;;;;;;;;;;6223391;23;20238;-82
2023/07/03 03:20:09;;;;;;;4.82;2.30;;;;;;;;;;6222778;23;20198;-83
2023/07/03 03:22:38;;;;;;;3.90;2.28;;;;;;;;;;6222875;23;20581;-82
2023/07/03 03:25:06;;;;;;;3.42;1.80;;;;;;;;;;6223495;23;20184;-82
2023/07/03 03:27:34;;;;;;;3.40;2.42;;;;;;;;;;6223955;23;20614;-81
2023/07/03 03:30:02;;;;;;;1.80;1.30;;;;;;;;;;6224156;23;20198;-82
2023/07/03 03:32:30;;;;;;;3.55;2.08;;;;;;;;;;6222364;23;20185;-82
2023/07/03 03:34:58;;;;;;;3.58;1.75;;;;;;;;;;6223293;23;20178;-82
2023/07/03 03:37:25;;;;;;;1.50;1.30;;;;;;;;;;6223352;23;20197;-82
2023/07/03 03:39:55;;;;;;;1.70;1.50;;;;;;;;;;6223198;23;20340;-80
2023/07/03 03:42:22;;;;;;;2.58;1.48;;;;;;;;;;6222917;23;20509;-81
2023/07/03 03:44:50;;;;;;;3.30;2.58;;;;;;;;;;6222823;23;20161;-82
2023/07/03 03:47:19;;;;;;;2.45;1.60;;;;;;;;;;6223820;23;20201;-81
2023/07/03 03:49:46;;;;;;;3.30;2.20;;;;;;;;;;6223975;23;20198;-81
2023/07/03 03:52:14;;;;;;;2.83;2.00;;;;;;;;;;6222997;23;20181;-81
2023/07/03 03:54:42;;;;;;;2.63;1.98;;;;;;;;;;6223058;23;20256;-81
2023/07/03 03:57:12;;;;;;;4.38;1.95;;;;;;;;;;6221739;23;20263;-82
2023/07/03 03:59:40;;;;;;;3.78;2.42;;;;;;;;;;6223184;23;20193;-82
2023/07/03 04:02:08;;;;;;;3.60;2.10;;;;;;;;;;6222777;23;20201;-82
2023/07/03 04:04:35;;;;;;;6.18;2.15;;;;;;;;;;6222690;23;20229;-82
2023/07/03 04:07:03;;;;;;;6.30;2.45;;;;;;;;;;6221675;23;20181;-83
2023/07/03 04:09:31;;;;;;;7.97;2.67;;;;;;;;;;6221654;23;20596;-82
2023/07/03 04:11:58;;;;;;;3.90;2.85;;;;;;;;;;6221568;23;20178;-80
2023/07/03 04:14:27;;;;;;;4.18;2.20;;;;;;;;;;6220489;23;20210;-80
2023/07/03 04:16:57;;;;;;;1.88;1.67;;;;;;;;;;6221267;23;20591;-83
2023/07/03 04:19:26;;;;;;;10.35;2.75;;;;;;;;;;6222811;23;20518;-83
2023/07/03 04:21:54;;;;;;;4.18;1.90;;;;;;;;;;6222547;23;20217;-82
2023/07/03 04:24:21;;;;;;;3.17;2.30;;;;;;;;;;6223041;23;20178;-81
2023/07/03 04:26:54;;;;;;;3.92;2.15;;;;;;;;;;6222943;23;20174;-82
2023/07/03 04:29:22;;;;;;;2.97;1.73;;;;;;;;;;6222369;23;20253;-82
2023/07/03 04:31:51;;;;;;;3.72;2.22;;;;;;;;;;6222449;23;20184;-82
2023/07/03 04:34:18;;;;;;;3.00;2.05;;;;;;;;;;6221946;23;20487;-81
2023/07/03 04:36:48;;;;;;;3.28;1.80;;;;;;;;;;6222137;23;20201;-82
2023/07/03 04:39:16;;;;;;;3.47;2.00;;;;;;;;;;6222590;23;20193;-82
2023/07/03 04:41:44;;;;;;;3.25;2.30;;;;;;;;;;6223276;23;20201;-82
2023/07/03 04:44:12;;;;;;;4.95;2.15;;;;;;;;;;6223257;23;20185;-82
2023/07/03 04:46:40;;;;;;;3.80;2.08;;;;;;;;;;6223185;23;20486;-82
2023/07/03 04:49:09;;;;;;;3.72;2.58;;;;;;;;;;6222721;23;20672;-82
2023/07/03 04:51:39;;;;;;;2.25;1.75;;;;;;;;;;6222753;23;20181;-82
2023/07/03 04:54:08;;;;;;;3.33;2.22;;;;;;;;;;6222882;23;20511;-82
2023/07/03 04:56:36;;;;;;;3.35;2.00;;;;;;;;;;6222742;23;20220;-81
2023/07/03 04:59:03;;;;;;;3.95;1.80;;;;;;;;;;6223392;23;20197;-80
2023/07/03 05:01:31;;;;;;;4.63;2.05;;;;;;;;;;6222701;23;20232;-80
2023/07/03 05:03:58;;;;;;;4.35;2.17;;;;;;;;;;6221758;23;20265;-82
2023/07/03 05:06:27;;;;;;;5.25;2.22;;;;;;;;;;6222114;23;20188;-82
2023/07/03 05:08:55;;;;;;;4.75;2.20;;;;;;;;;;6222523;23;20567;-80
2023/07/03 05:11:23;;;;;;;4.70;2.47;;;;;;;;;;6220703;23;20489;-79
2023/07/03 05:13:51;;;;;;;5.75;2.22;;;;;;;;;;6221503;23;20239;-81
2023/07/03 05:16:18;;;;;;;7.03;2.88;;;;;;;;;;6222353;23;20197;-83
2023/07/03 05:18:46;;;;;;;3.88;2.28;;;;;;;;;;6222075;23;20178;-81
2023/07/03 05:21:13;;;;;;;2.78;1.77;;;;;;;;;;6221291;23;20178;-82
2023/07/03 05:23:42;;;;;;;3.47;2.30;;;;;;;;;;6221267;23;20256;-82
2023/07/03 05:26:10;;;;;;;4.07;2.40;;;;;;;;;;6221419;23;20184;-82
2023/07/03 05:28:38;;;;;;;5.47;2.75;;;;;;;;;;6222799;23;20478;-83
2023/07/03 05:31:06;;;;;;;4.38;2.65;;;;;;;;;;6219068;23;20633;-82
2023/07/03 05:33:33;;;;;;;6.85;2.42;;;;;;;;;;6219786;23;20209;-80
2023/07/03 05:36:03;;;;;;;3.42;2.13;;;;;;;;;;6220456;23;20236;-83
2023/07/03 05:38:30;;;;;;;8.52;2.08;;;;;;;;;;6222140;23;20764;-83
2023/07/03 05:41:00;;;;;;;3.85;1.85;;;;;;;;;;6221850;23;20510;-79
2023/07/03 05:43:29;;;;;;;4.18;2.67;;;;;;;;;;6221916;23;20162;-78
2023/07/03 05:45:56;;;;;;;6.47;2.25;;;;;;;;;;6223698;23;20497;-80
2023/07/03 05:48:25;;;;;;;6.07;2.85;;;;;;;;;;6222634;23;20626;-81
2023/07/03 05:50:53;;;;;;;3.05;2.08;;;;;;;;;;6223128;23;20205;-81
2023/07/03 05:53:20;;;;;;;2.47;1.80;;;;;;;;;;6222578;23;20648;-79
2023/07/03 05:55:55;;;;;;;4.18;1.92;;;;;;;;;;6221970;23;20228;-78
2023/07/03 05:58:24;;;;;;;4.88;2.15;;;;;;;;;;6222047;23;20182;-79
2023/07/03 06:00:52;;;;;;;5.70;3.58;;;;;;;;;;6221886;23;20198;-79
2023/07/03 06:03:20;;;;;;;6.47;2.85;;;;;;;;;;6222643;23;20217;-79
2023/07/03 06:05:48;;;;;;;5.70;2.40;;;;;;;;;;6220749;23;20185;-80
2023/07/03 06:08:16;;;;;;;4.15;2.30;;;;;;;;;;6220867;23;20201;-79
2023/07/03 06:10:44;;;;;;;3.28;2.13;;;;;;;;;;6220642;23;20197;-81
2023/07/03 06:13:13;;;;;;;6.78;3.63;;;;;;;;;;6221395;23;20621;-81
2023/07/03 06:15:42;;;;;;;3.45;2.13;;;;;;;;;;6220100;23;20178;-80
2023/07/03 06:18:10;;;;;;;6.15;2.20;;;;;;;;;;6220054;23;20220;-80
2023/07/03 06:20:38;;;;;;;5.13;2.55;;;;;;;;;;6222767;23;20273;-80
2023/07/03 06:23:05;;;;;;;5.30;2.13;;;;;;;;;;6222139;23;20201;-81
2023/07/03 06:25:33;;;;;;;6.25;2.40;;;;;;;;;;6222671;23;20209;-78
2023/07/03 06:28:01;;;;;;;3.78;1.98;;;;;;;;;;6223236;23;20174;-80
2023/07/03 06:30:28;;;;;;;4.35;2.85;;;;;;;;;;6222617;23;20235;-79
2023/07/03 06:32:57;;;;;;;3.13;2.00;;;;;;;;;;6219443;23;20191;-80
2023/07/03 06:35:25;;;;;;;3.63;2.60;;;;;;;;;;6219253;23;20261;-81
2023/07/03 06:37:55;;;;;;;2.65;2.30;;;;;;;;;;6220034;23;20622;-81
2023/07/03 06:40:23;;;;;;;3.20;2.03;;;;;;;;;;6220007;23;20189;-80
2023/07/03 06:42:53;;;;;;;4.38;2.88;;;;;;;;;;6219504;23;20177;-80
2023/07/03 06:45:20;;;;;;;5.18;2.80;;;;;;;;;;6219458;23;20257;-80
2023/07/03 06:47:48;;;;;;;5.03;2.60;;;;;;;;;;6219596;23;20551;-79
2023/07/03 06:50:17;;;;;;;5.30;2.22;;;;;;;;;;6218977;23;20262;-80
2023/07/03 06:52:47;;;;;;;6.10;2.45;;;;;;;;;;6219694;23;20173;-81
2023/07/03 06:55:14;;;;;;;4.63;2.45;;;;;;;;;;6218645;23;20174;-82
2023/07/03 06:57:42;;;;;;;4.40;2.75;;;;;;;;;;6218517;23;20198;-80
2023/07/03 07:00:11;;;;;;;4.55;2.78;;;;;;;;;;6217229;23;20193;-80
2023/07/03 07:02:38;;;;;;;3.08;2.13;;;;;;;;;;6218052;23;20205;-79
2023/07/03 07:05:07;;;;;;;4.28;3.05;;;;;;;;;;6217978;23;20174;-79
2023/07/03 07:07:36;;;;;;;5.05;2.53;;;;;;;;;;6217900;23;20210;-79
2023/07/03 07:10:03;;;;;;;4.03;1.98;;;;;;;;;;6218906;23;20226;-78
2023/07/03 07:12:31;;;;;;;5.03;2.35;;;;;;;;;;6218450;23;20253;-79
2023/07/03 07:14:58;;;;;;;4.55;2.30;;;;;;;;;;6219362;23;20201;-78
2023/07/03 07:17:26;;;;;;;5.88;2.40;;;;;;;;;;6217747;23;20262;-80
2023/07/03 07:19:53;;;;;;;3.20;2.38;;;;;;;;;;6218306;23;20220;-78
2023/07/03 07:22:21;;;;;;;4.45;2.50;;;;;;;;;;6217659;23;20252;-78
2023/07/03 07:24:49;;;;;;;2.70;1.88;;;;;;;;;;6218453;23;20212;-79
2023/07/03 07:27:17;;;;;;;1.95;1.55;;;;;;;;;;6217652;23;20264;-81
2023/07/03 07:29:44;;;;;;;5.72;2.78;;;;;;;;;;6218359;23;20217;-79
2023/07/03 07:32:12;;;;;;;2.63;2.35;;;;;;;;;;6217315;23;20256;-78
2023/07/03 07:34:39;;;;;;;2.85;2.10;;;;;;;;;;6218777;23;20205;-79
2023/07/03 07:37:07;;;;;;;3.95;2.60;;;;;;;;;;6217965;23;20210;-79
2023/07/03 07:39:34;;;;;;;5.93;2.17;;;;;;;;;;6217217;23;20277;-81
2023/07/03 07:42:03;;;;;;;4.82;2.65;;;;;;;;;;6218312;23;20636;-81
2023/07/03 07:44:30;;;;;;;3.63;2.35;;;;;;;;;;6216093;23;20181;-78
2023/07/03 07:46:58;;;;;;;5.70;2.50;;;;;;;;;;6217668;23;20205;-81
2023/07/03 07:49:25;;;;;;;3.03;2.08;;;;;;;;;;6216875;23;20538;-79
2023/07/03 07:51:54;;;;;;;5.82;2.42;;;;;;;;;;6210504;23;20232;-95
2023/07/03 07:54:21;;;;;;;4.40;2.67;;;;;;;;;;6220719;23;20181;-94
2023/07/03 07:56:49;;;;;;;6.22;2.55;;;;;;;;;;6235118;23;20170;-95
2023/07/03 07:59:18;;;;;;;2.20;1.80;;;;;;;;;;6232377;23;20189;-93
2023/07/03 08:01:45;;;;;;;5.05;2.53;;;;;;;;;;6230923;23;20174;-94
2023/07/03 08:04:13;;;;;;;4.13;2.80;;;;;;;;;;6231932;23;20178;-94
2023/07/03 08:06:41;;;;;;;3.05;2.08;;;;;;;;;;6231566;23;20173;-94
2023/07/03 08:09:08;;;;;;;4.13;2.13;;;;;;;;;;6236097;23;20180;-93
2023/07/03 08:11:36;;;;;;;7.47;3.40;;;;;;;;;;6238330;23;20490;-95
2023/07/03 08:14:04;;;;;;;5.05;2.20;;;;;;;;;;6238826;23;20216;-94
2023/07/03 08:16:33;;;;;;;2.72;2.10;;;;;;;;;;6236462;23;20170;-93
2023/07/03 08:19:00;;;;;;;4.25;1.90;;;;;;;;;;6237327;23;20178;-94
2023/07/03 08:21:28;;;;;;;3.28;2.00;;;;;;;;;;6239169;23;20181;-94
2023/07/03 08:23:56;;;;;;;5.57;2.40;;;;;;;;;;6235365;23;20193;-94
2023/07/03 08:26:25;;;;;;;3.63;2.33;;;;;;;;;;6240074;23;20169;-94
2023/07/03 08:28:53;;;;;;;4.78;2.50;;;;;;;;;;6238245;23;20157;-95
2023/07/03 08:31:20;;;;;;;5.57;2.45;;;;;;;;;;6236594;23;20173;-94
2023/07/03 08:33:52;;;;;;;3.75;1.98;;;;;;;;;;6222216;23;20216;-94
2023/07/03 08:36:19;;;;;;;4.60;2.60;;;;;;;;;;6240306;23;20189;-94
2023/07/03 08:38:47;;;;;;;2.85;2.05;;;;;;;;;;6240852;23;20188;-94
2023/07/03 08:41:16;;;;;;;4.68;1.98;;;;;;;;;;6237701;23;20162;-93
2023/07/03 08:43:46;;;;;;;4.45;2.28;;;;;;;;;;6240870;23;20250;-93
2023/07/03 08:46:17;;;;;;;3.80;1.95;;;;;;;;;;6241855;23;20169;-92
2023/07/03 08:48:47;;;;;;;5.20;2.25;;;;;;;;;;6240319;23;20146;-95
2023/07/03 08:51:18;;;;;;;5.47;2.25;;;;;;;;;;6242365;23;20205;-94
2023/07/03 10:24:17;;;;;;;2.88;2.15;;;;;;;;;;6227887;23;20201;-94
2023/07/03 10:26:56;;;;;;;6.47;2.17;;;;;;;;;;6245589;23;20151;-93
2023/07/03 10:29:28;;;;;;;2.15;1.95;;;;;;;;;;6245169;23;20149;-94
2023/07/03 10:31:59;;;;;;;4.13;3.08;;;;;;;;;;6245033;23;20142;-93
2023/07/03 10:34:32;;;;;;;3.35;2.63;;;;;;;;;;6244372;23;20146;-93
2023/07/03 10:37:05;;;;;;;4.60;1.73;;;;;;;;;;6245398;23;20150;-94
2023/07/03 10:39:42;;;;;;;2.90;1.67;;;;;;;;;;6245185;23;20168;-94
2023/07/03 10:42:22;;;;;;;2.17;1.95;;;;;;;;;;6245262;23;20149;-95
2023/07/03 10:44:53;;;;;;;3.05;1.80;;;;;;;;;;6245041;23;20161;-95
2023/07/03 10:47:25;;;;;;;4.22;1.95;;;;;;;;;;6245172;23;20150;-96
2023/07/03 10:49:53;;;;;;;4.55;2.97;;;;;;;;;;6244902;23;20146;-94
2023/07/03 10:52:31;;;;;;;1.83;1.42;;;;;;;;;;6245232;23;20146;-95
2023/07/03 10:58:07;;;;;;;3.53;2.00;;;;;;;;;;6224839;23;20154;-95
2023/07/03 11:00:42;;;;;;;2.80;1.90;;;;;;;;;;6244900;23;20158;-94
2023/07/03 11:03:18;;;;;;;3.92;2.33;;;;;;;;;;6244986;23;20152;-96
2023/07/03 11:05:53;;;;;;;2.83;1.95;;;;;;;;;;6245425;23;20165;-96
2023/07/03 11:08:27;;;;;;;5.25;2.28;;;;;;;;;;6245215;23;20149;-96
2023/07/03 11:11:02;;;;;;;2.83;1.98;;;;;;;;;;6245067;23;20156;-96
2023/07/03 11:14:10;;;;;;;3.38;1.73;;;;;;;;;;6244357;23;20157;-95
2023/07/03 11:16:54;;;;;;;3.95;2.28;;;;;;;;;;6235894;23;20170;-95
2023/07/03 11:19:34;;;;;;;5.13;2.10;;;;;;;;;;6243996;23;20601;-95
2023/07/03 11:22:12;;;;;;;2.20;1.70;;;;;;;;;;6245047;23;20160;-96
2023/07/03 11:24:55;;;;;;;4.35;1.90;;;;;;;;;;6244478;23;20150;-95
2023/07/03 11:27:30;;;;;;;4.32;2.47;;;;;;;;;;6244213;23;20150;-95
2023/07/03 11:29:59;;;;;;;2.67;2.47;;;;;;;;;;6244729;23;20156;-95
2023/07/03 11:32:27;;;;;;;2.33;1.70;;;;;;;;;;6244714;23;20158;-95
2023/07/03 11:34:55;;;;;;;2.92;1.80;;;;;;;;;;6243680;23;20177;-95
2023/07/03 11:37:48;;;;;;;3.97;1.95;;;;;;;;;;6244905;23;20150;-95
2023/07/03 11:40:33;;;;;;;6.45;2.25;;;;;;;;;;6244745;23;20162;-95
2023/07/03 11:49:19;;;;;;;4.45;2.10;;;;;;;;;;6096222;23;20164;-95
2023/07/03 11:55:44;;;;;;;4.55;2.80;;;;;;;;;;6039622;23;20157;-94
2023/07/03 11:58:14;;;;;;;5.47;2.92;;;;;;;;;;6125183;23;20176;-94
2023/07/03 12:00:43;;;;;;;2.55;2.35;;;;;;;;;;6124247;23;20176;-95
2023/07/03 12:03:11;;;;;;;4.32;2.40;;;;;;;;;;6123390;23;20152;-95
2023/07/03 12:05:56;;;;;;;4.07;2.80;;;;;;;;;;6124077;23;20171;-95
2023/07/03 12:08:44;;;;;;;2.97;2.22;;;;;;;;;;6124403;23;20171;-95
2023/07/03 12:11:14;;;;;;;5.07;2.92;;;;;;;;;;6123864;23;20193;-95
2023/07/03 12:14:03;;;;;;;4.30;2.70;;;;;;;;;;6123683;23;20197;-94
2023/07/03 12:16:35;;;;;;;2.30;2.10;;;;;;;;;;6123873;23;20152;-94
2023/07/03 12:19:09;;;;;;;3.20;2.10;;;;;;;;;;6124108;23;20184;-94
2023/07/03 12:21:42;;;;;;;2.10;1.88;;;;;;;;;;6123797;23;20182;-94
2023/07/03 12:24:30;;;;;;;4.50;1.92;;;;;;;;;;6123819;23;20172;-94
2023/07/03 12:27:04;;;;;;;2.53;1.92;;;;;;;;;;6123642;23;20173;-95
2023/07/03 12:29:47;;;;;;;3.63;2.55;;;;;;;;;;6123684;23;20205;-94
2023/07/03 12:32:24;;;;;;;5.18;2.75;;;;;;;;;;6123433;23;20153;-94
2023/07/03 12:34:52;;;;;;;3.85;2.42;;;;;;;;;;6127388;23;20187;-94
2023/07/03 12:37:25;;;;;;;3.13;2.50;;;;;;;;;;6213204;23;20171;-95
2023/07/03 12:39:53;;;;;;;4.68;2.50;;;;;;;;;;6212323;23;20176;-94
2023/07/03 12:42:24;;;;;;;4.55;2.45;;;;;;;;;;6212550;23;20189;-95
2023/07/03 12:44:53;;;;;;;3.90;2.35;;;;;;;;;;6233156;23;20165;-94
2023/07/03 12:47:22;;;;;;;3.60;2.70;;;;;;;;;;6243586;23;20153;-93
2023/07/03 12:49:59;;;;;;;3.85;2.50;;;;;;;;;;6244717;23;20149;-94
2023/07/03 12:52:33;;;;;;;2.67;2.20;;;;;;;;;;6244376;23;20183;-94
2023/07/03 12:55:03;;;;;;;3.08;2.17;;;;;;;;;;6244245;23;20182;-94
2023/07/03 12:57:33;;;;;;;2.75;2.40;;;;;;;;;;6244775;23;20146;-95
2023/07/03 13:00:02;;;;;;;5.90;2.50;;;;;;;;;;6244800;23;20161;-94
2023/07/03 13:02:31;;;;;;;6.40;2.53;;;;;;;;;;6244796;23;20189;-94
2023/07/03 13:05:01;;;;;;;2.30;1.98;;;;;;;;;;6244968;23;20169;-95
2023/07/03 13:07:31;;;;;;;2.10;1.90;;;;;;;;;;6245235;23;20158;-94
2023/07/03 13:10:07;;;;;;;2.38;1.75;;;;;;;;;;6245961;23;20146;-95
2023/07/03 13:12:35;;;;;;;3.65;2.38;;;;;;;;;;6246074;23;20161;-94
2023/07/03 13:15:07;;;;;;;2.53;2.33;;;;;;;;;;6245310;23;20166;-94
2023/07/03 13:17:37;;;;;;;3.08;2.22;;;;;;;;;;6244869;23;20149;-93
2023/07/03 13:20:24;;;;;;;2.53;2.22;;;;;;;;;;6244900;23;20150;-94
2023/07/03 13:22:56;;;;;;;3.35;2.72;;;;;;;;;;6244616;23;20150;-95
2023/07/03 13:25:33;;;;;;;3.63;2.20;;;;;;;;;;6243985;23;20166;-93
2023/07/03 13:28:06;;;;;;;4.53;2.20;;;;;;;;;;6244207;23;20173;-93
2023/07/03 13:30:38;;;;;;;2.33;2.13;;;;;;;;;;6244515;23;20188;-93
2023/07/03 13:33:08;;;;;;;3.00;2.10;;;;;;;;;;6244583;23;20154;-94
2023/07/03 13:35:41;;;;;;;2.92;2.15;;;;;;;;;;6244277;23;20177;-94
2023/07/03 13:38:20;;;;;;;2.95;2.40;;;;;;;;;;6244417;23;20151;-93
2023/07/03 13:40:49;;;;;;;4.78;2.90;;;;;;;;;;6243322;23;20161;-94
2023/07/03 13:43:21;;;;;;;3.75;2.38;;;;;;;;;;6244216;23;20178;-95
2023/07/03 13:45:50;;;;;;;3.35;2.00;;;;;;;;;;6244272;23;20146;-91
2023/07/03 13:48:18;;;;;;;3.40;2.33;;;;;;;;;;6239115;23;20228;-93
2023/07/03 13:50:46;;;;;;;3.40;1.80;;;;;;;;;;6243947;23;20154;-93
2023/07/03 13:53:15;;;;;;;2.65;1.92;;;;;;;;;;6244570;22;20501;-93
2023/07/03 13:55:43;;;;;;;2.42;1.90;;;;;;;;;;6274681;22;20161;-94
2023/07/03 13:58:11;;;;;;;2.85;2.58;;;;;;;;;;6273991;22;20177;-95
2023/07/03 14:00:38;;;;;;;3.17;2.25;;;;;;;;;;6274309;22;20156;-93
2023/07/03 14:03:06;;;;;;;3.80;2.30;;;;;;;;;;6274453;22;20173;-93
2023/07/03 14:05:33;;;;;;;2.35;1.92;;;;;;;;;;6274665;22;20165;-95
2023/07/03 14:08:01;;;;;;;4.72;3.05;;;;;;;;;;6274436;22;20183;-96
2023/07/03 14:10:30;;;;;;;2.85;2.17;;;;;;;;;;6274801;22;20157;-94
2023/07/03 14:12:58;;;;;;;3.72;2.10;;;;;;;;;;6274578;22;20141;-93
2023/07/03 14:15:27;;;;;;;3.05;2.20;;;;;;;;;;6274292;22;20165;-94
2023/07/03 14:17:55;;;;;;;6.43;2.42;;;;;;;;;;6274474;22;20158;-94
2023/07/03 14:20:23;;;;;;;3.63;2.30;;;;;;;;;;6274749;22;20157;-94
2023/07/03 14:22:51;;;;;;;3.90;2.13;;;;;;;;;;6274527;22;20188;-94
2023/07/03 14:25:18;;;;;;;2.17;1.88;;;;;;;;;;6274116;22;20185;-94
2023/07/03 14:27:48;;;;;;;3.60;2.28;;;;;;;;;;6274839;22;20171;-94
2023/07/03 14:30:17;;;;;;;4.38;2.30;;;;;;;;;;6274357;22;20216;-95
2023/07/03 14:32:44;;;;;;;3.70;2.00;;;;;;;;;;6274011;22;20145;-94
2023/07/03 14:35:12;;;;;;;4.20;2.08;;;;;;;;;;6274055;22;20168;-94
2023/07/03 14:37:39;;;;;;;2.38;2.17;;;;;;;;;;6273973;22;20169;-94
2023/07/03 14:40:09;;;;;;;2.13;1.92;;;;;;;;;;6274091;22;20153;-96
2023/07/03 14:42:36;;;;;;;2.42;1.90;;;;;;;;;;6274030;22;20169;-94
2023/07/03 14:45:07;;;;;;;5.03;2.30;;;;;;;;;;6273638;22;20172;-94
2023/07/03 14:47:34;;;;;;;4.75;1.83;;;;;;;;;;6274242;22;20161;-94
2023/07/03 14:50:03;;;;;;;2.97;1.98;;;;;;;;;;6273871;22;20157;-96
2023/07/03 14:52:36;;;;;;;3.15;2.40;;;;;;;;;;6273721;22;20146;-94
2023/07/03 14:55:04;;;;;;;3.05;2.42;;;;;;;;;;6273758;22;20185;-94
2023/07/03 14:57:32;;;;;;;4.30;2.55;;;;;;;;;;6274160;22;20159;-95
2023/07/03 15:00:00;;;;;;;3.42;2.65;;;;;;;;;;6273250;22;20382;-93
2023/07/03 15:02:29;;;;;;;3.05;2.38;;;;;;;;;;6273855;22;20180;-94
2023/07/03 15:04:57;;;;;;;2.60;2.35;;;;;;;;;;6273775;22;20168;-94
2023/07/03 15:07:24;;;;;;;2.50;2.28;;;;;;;;;;6274048;22;20168;-94
2023/07/03 15:09:52;;;;;;;3.22;2.53;;;;;;;;;;6273760;22;20149;-95
2023/07/03 15:12:20;;;;;;;2.85;1.90;;;;;;;;;;6274021;22;20161;-93
2023/07/03 15:14:48;;;;;;;2.45;2.00;;;;;;;;;;6273691;22;20165;-93
2023/07/03 15:17:16;;;;;;;5.20;3.20;;;;;;;;;;6273776;22;20145;-93
2023/07/03 15:19:45;;;;;;;4.35;2.85;;;;;;;;;;6273988;22;20145;-92
2023/07/03 15:22:13;;;;;;;5.32;2.55;;;;;;;;;;6273690;22;20173;-94
2023/07/03 15:24:42;;;;;;;2.80;2.15;;;;;;;;;;6273641;22;20180;-94
2023/07/03 15:27:10;;;;;;;2.90;2.10;;;;;;;;;;6273558;22;20159;-95
2023/07/03 15:29:37;;;;;;;5.55;2.72;;;;;;;;;;6273431;22;20173;-95
2023/07/03 15:32:06;;;;;;;5.25;3.63;;;;;;;;;;6273205;22;20161;-95
2023/07/03 15:34:33;;;;;;;3.33;2.42;;;;;;;;;;6273207;22;20171;-95
2023/07/03 15:37:03;;;;;;;2.60;2.22;;;;;;;;;;6273233;22;20153;-93
2023/07/03 15:39:30;;;;;;;2.50;2.25;;;;;;;;;;6273372;22;20145;-94
2023/07/03 15:41:58;;;;;;;2.95;2.55;;;;;;;;;;6273454;22;20222;-94
2023/07/03 15:44:26;;;;;;;3.97;2.85;;;;;;;;;;6273876;22;20181;-95
2023/07/03 15:46:54;;;;;;;2.65;2.45;;;;;;;;;;6274029;22;20162;-95
2023/07/03 15:49:21;;;;;;;3.17;2.28;;;;;;;;;;6273705;22;20163;-94
2023/07/03 15:51:50;;;;;;;3.13;2.47;;;;;;;;;;6273796;22;20169;-96
2023/07/03 15:54:19;;;;;;;2.35;2.15;;;;;;;;;;6273775;22;20196;-94
2023/07/03 15:56:48;;;;;;;3.13;2.33;;;;;;;;;;6273583;22;20161;-96
2023/07/03 15:59:16;;;;;;;3.78;2.63;;;;;;;;;;6273677;22;20177;-94
2023/07/03 16:01:44;;;;;;;4.70;3.30;;;;;;;;;;6273772;22;20157;-96
2023/07/03 16:04:12;;;;;;;2.55;2.35;;;;;;;;;;6273226;22;20193;-96
2023/07/03 16:06:39;;;;;;;2.60;2.20;;;;;;;;;;6273604;22;20157;-94
2023/07/03 16:09:08;;;;;;;4.18;2.85;;;;;;;;;;6273669;22;20153;-95
2023/07/03 16:11:38;;;;;;;2.83;2.45;;;;;;;;;;6273652;22;20145;-96
2023/07/03 16:14:05;;;;;;;2.75;2.35;;;;;;;;;;6273246;22;20180;-94
2023/07/03 16:16:33;;;;;;;2.92;2.53;;;;;;;;;;6273604;22;20145;-95
2023/07/03 16:19:02;;;;;;;3.40;2.45;;;;;;;;;;6273553;22;20153;-92
2023/07/03 16:21:33;;;;;;;4.10;2.72;;;;;;;;;;6273220;22;20175;-94
2023/07/03 16:24:03;;;;;;;3.20;2.53;;;;;;;;;;6273165;22;20232;-94
2023/07/03 16:26:32;;;;;;;2.90;2.65;;;;;;;;;;6273437;22;20165;-94
2023/07/03 16:29:04;;;;;;;3.28;2.20;;;;;;;;;;6273317;22;20165;-96
2023/07/03 16:31:32;;;;;;;4.57;2.75;;;;;;;;;;6273398;22;20173;-94
2023/07/03 16:34:01;;;;;;;3.80;2.78;;;;;;;;;;6273188;22;20184;-95
2023/07/03 16:36:31;;;;;;;3.55;2.83;;;;;;;;;;6273330;22;20153;-95
2023/07/03 16:39:00;;;;;;;3.20;2.92;;;;;;;;;;6273467;22;20172;-95
2023/07/03 16:41:30;;;;;;;4.75;3.58;;;;;;;;;;6273278;22;20184;-94